Time;durP1;ratioP1;P1;durP2;ratioP2;P2;SDS_P1;SDS_P2;PMS_P1;PMS_P2;Temp;Humidity;BMP_temperature;BMP_pressure;BME280_temperature;BME280_humidity;BME280_pressure;Samples;Min_cycle;Max_cycle;Signal;HPM_P1;HPM_P2
2023/04/11 00:01:57;;;;;;;;;;;11.10;99.90;;;;;;5068238;28;19924;-62
2023/04/11 00:04:29;;;;;;;;;;;11.10;99.90;;;;;;5069267;28;19920;-62
2023/04/11 00:07:01;;;;;;;;;;;11.20;99.90;;;;;;5069857;28;19920;-62
2023/04/11 00:09:33;;;;;;;;;;;11.20;99.90;;;;;;5070679;28;20373;-62
2023/04/11 00:12:04;;;;;;;;;;;11.30;99.90;;;;;;5053633;28;19920;-62
2023/04/11 00:14:37;;;;;;;;;;;11.20;99.90;;;;;;5071670;28;19935;-62
2023/04/11 00:17:11;;;;;;;;;;;11.20;99.90;;;;;;5071609;28;19931;-62
2023/04/11 00:19:38;;;;;;;;;;;11.20;99.90;;;;;;5068023;28;19928;-62
2023/04/11 00:22:10;;;;;;;;;;;11.20;99.90;;;;;;5070795;28;20389;-62
2023/04/11 00:24:36;;;;;;;;;;;11.20;99.90;;;;;;5070953;28;19920;-62
2023/04/11 00:27:08;;;;;;;;;;;11.10;99.90;;;;;;5053106;28;19966;-62
2023/04/11 00:29:40;;;;;;;;;;;11.20;99.90;;;;;;5051568;28;20424;-62
2023/04/11 00:32:08;;;;;;;;;;;11.20;99.90;;;;;;5067703;28;20367;-62
2023/04/11 00:34:40;;;;;;;;;;;11.20;99.90;;;;;;5052468;28;19974;-62
2023/04/11 00:37:13;;;;;;;;;;;11.30;99.90;;;;;;5071234;28;19928;-62
2023/04/11 00:39:44;;;;;;;;;;;11.30;99.90;;;;;;5068931;28;19921;-62
2023/04/11 00:42:16;;;;;;;;;;;11.50;99.90;;;;;;5049939;28;19924;-62
2023/04/11 00:44:47;;;;;;;;;;;11.50;99.90;;;;;;5067338;28;19924;-62
2023/04/11 00:47:19;;;;;;;;;;;11.50;99.90;;;;;;5060721;28;19920;-62
2023/04/11 00:49:46;;;;;;;;;;;11.60;99.90;;;;;;5069673;28;20348;-62
2023/04/11 00:52:18;;;;;;;;;;;11.60;99.90;;;;;;5068758;28;19928;-62
2023/04/11 00:54:50;;;;;;;;;;;11.60;99.90;;;;;;5052685;28;20045;-62
2023/04/11 00:57:24;;;;;;;;;;;11.70;99.90;;;;;;5050198;28;19970;-62
2023/04/11 00:59:57;;;;;;;;;;;11.70;99.90;;;;;;5068303;28;19924;-62
2023/04/11 01:02:28;;;;;;;;;;;11.70;99.90;;;;;;5072308;28;19921;-62
2023/04/11 01:05:01;;;;;;;;;;;11.70;99.90;;;;;;5068185;28;19926;-62
2023/04/11 01:07:28;;;;;;;;;;;11.70;99.90;;;;;;5068684;28;19931;-62
2023/04/11 01:10:00;;;;;;;;;;;11.70;99.90;;;;;;5074414;28;19928;-62
2023/04/11 01:12:32;;;;;;;;;;;11.70;99.90;;;;;;5071404;28;19920;-62
2023/04/11 01:15:05;;;;;;;;;;;11.60;99.90;;;;;;5054984;28;19920;-62
2023/04/11 01:17:36;;;;;;;;;;;11.70;99.90;;;;;;5071953;28;19982;-62
2023/04/11 01:20:09;;;;;;;;;;;11.60;99.90;;;;;;5074193;28;19931;-62
2023/04/11 01:22:41;;;;;;;;;;;11.60;99.90;;;;;;5057132;28;19931;-62
2023/04/11 01:25:14;;;;;;;;;;;11.60;99.90;;;;;;5040068;28;19925;-62
2023/04/11 01:27:47;;;;;;;;;;;11.60;99.90;;;;;;5072010;28;20015;-63
2023/04/11 01:30:19;;;;;;;;;;;11.60;99.90;;;;;;5072044;28;19921;-62
2023/04/11 01:32:50;;;;;;;;;;;11.60;99.90;;;;;;5055569;28;19928;-62
2023/04/11 01:35:22;;;;;;;;;;;11.60;99.90;;;;;;5056183;28;20347;-62
2023/04/11 01:37:54;;;;;;;;;;;11.70;99.90;;;;;;5063325;28;20671;-62
2023/04/11 01:40:28;;;;;;;;;;;11.80;99.90;;;;;;5057409;28;19920;-62
2023/04/11 01:43:03;;;;;;;;;;;11.90;99.90;;;;;;5055992;28;19932;-62
2023/04/11 01:45:35;;;;;;;;;;;12.00;99.90;;;;;;5062555;28;19924;-62
2023/04/11 01:48:07;;;;;;;;;;;12.10;99.90;;;;;;5071925;28;19924;-62
2023/04/11 01:50:38;;;;;;;;;;;12.00;99.90;;;;;;5070667;28;19924;-62
2023/04/11 01:53:10;;;;;;;;;;;12.00;99.90;;;;;;5055133;28;19928;-62
2023/04/11 01:55:41;;;;;;;;;;;12.00;99.90;;;;;;5060353;28;19931;-62
2023/04/11 01:58:13;;;;;;;;;;;11.90;99.90;;;;;;5055371;28;19924;-62
2023/04/11 02:00:45;;;;;;;;;;;11.90;99.90;;;;;;5053536;28;19920;-62
2023/04/11 02:03:19;;;;;;;;;;;11.90;99.90;;;;;;5070879;28;20380;-62
2023/04/11 02:05:51;;;;;;;;;;;11.90;99.90;;;;;;5067723;28;20282;-62
2023/04/11 02:08:22;;;;;;;;;;;11.90;99.90;;;;;;5069531;28;20473;-62
2023/04/11 02:10:54;;;;;;;;;;;11.90;99.90;;;;;;5040612;28;19928;-62
2023/04/11 02:13:26;;;;;;;;;;;11.90;99.90;;;;;;5068809;28;19920;-62
2023/04/11 02:15:53;;;;;;;;;;;11.90;99.90;;;;;;5068475;28;20304;-62
2023/04/11 02:18:25;;;;;;;;;;;12.00;99.90;;;;;;5055276;28;19982;-62
2023/04/11 02:20:57;;;;;;;;;;;12.10;99.90;;;;;;5072146;28;19921;-62
2023/04/11 02:23:28;;;;;;;;;;;12.10;99.90;;;;;;5071050;28;19967;-62
2023/04/11 02:26:01;;;;;;;;;;;12.00;99.90;;;;;;5050990;28;19921;-62
2023/04/11 02:28:32;;;;;;;;;;;12.00;99.90;;;;;;5071474;28;19920;-62
2023/04/11 02:31:05;;;;;;;;;;;12.10;99.90;;;;;;5055077;28;19974;-62
2023/04/11 02:33:36;;;;;;;;;;;12.10;99.90;;;;;;5071576;28;19924;-62
2023/04/11 02:36:11;;;;;;;;;;;12.10;99.90;;;;;;5056079;28;20143;-62
2023/04/11 02:38:42;;;;;;;;;;;12.20;99.90;;;;;;5054780;28;19927;-62
2023/04/11 02:41:09;;;;;;;;;;;12.10;99.90;;;;;;5071587;28;19920;-62
2023/04/11 02:43:41;;;;;;;;;;;12.10;99.90;;;;;;5054673;28;20439;-62
2023/04/11 02:46:12;;;;;;;;;;;12.00;99.90;;;;;;5072666;28;19924;-62
2023/04/11 02:48:42;;;;;;;;;;;11.90;99.90;;;;;;5065204;28;19974;-62
2023/04/11 02:51:14;;;;;;;;;;;11.90;99.90;;;;;;5053702;28;19978;-62
2023/04/11 02:53:46;;;;;;;;;;;11.80;99.90;;;;;;5067582;28;20396;-62
2023/04/11 02:56:19;;;;;;;;;;;11.80;99.90;;;;;;5068635;28;20340;-62
2023/04/11 02:58:54;;;;;;;;;;;11.80;99.90;;;;;;5070483;28;20334;-62
2023/04/11 03:01:28;;;;;;;;;;;11.80;99.90;;;;;;5071438;28;19920;-62
2023/04/11 03:03:59;;;;;;;;;;;11.70;99.90;;;;;;5054453;28;19920;-62
2023/04/11 03:06:43;;;;;;;;;;;11.70;99.90;;;;;;5054511;28;19920;-62
2023/04/11 03:09:10;;;;;;;;;;;11.80;99.90;;;;;;5070858;28;19924;-62
2023/04/11 03:11:42;;;;;;;;;;;11.90;99.90;;;;;;5054325;28;19921;-62
2023/04/11 03:14:15;;;;;;;;;;;11.90;99.90;;;;;;5061602;28;19982;-62
2023/04/11 03:16:41;;;;;;;;;;;12.00;99.90;;;;;;5054261;28;20010;-62
2023/04/11 03:19:13;;;;;;;;;;;12.10;99.90;;;;;;5054240;28;19924;-62
2023/04/11 03:21:45;;;;;;;;;;;12.10;99.90;;;;;;5054770;28;19924;-62
2023/04/11 03:24:17;;;;;;;;;;;12.10;99.90;;;;;;5068308;28;19920;-62
2023/04/11 03:26:50;;;;;;;;;;;12.10;99.90;;;;;;5068576;28;20045;-62
2023/04/11 03:29:21;;;;;;;;;;;12.10;99.90;;;;;;5054286;28;20381;-62
2023/04/11 03:32:16;;;;;;;;;;;12.10;99.90;;;;;;5065900;28;19920;-62
2023/04/11 03:34:49;;;;;;;;;;;12.20;99.90;;;;;;5052925;28;20407;-62
2023/04/11 03:37:21;;;;;;;;;;;12.10;99.90;;;;;;5052937;28;19928;-62
2023/04/11 03:39:53;;;;;;;;;;;12.10;99.90;;;;;;5063850;28;19920;-62
2023/04/11 03:42:25;;;;;;;;;;;12.10;99.90;;;;;;5054333;28;19939;-62
2023/04/11 03:44:59;;;;;;;;;;;12.10;99.90;;;;;;5053424;28;19925;-62
2023/04/11 03:47:30;;;;;;;;;;;12.10;99.90;;;;;;5070837;28;19931;-62
2023/04/11 03:50:03;;;;;;;;;;;12.10;99.90;;;;;;5064709;28;19927;-62
2023/04/11 03:52:36;;;;;;;;;;;12.10;99.90;;;;;;5061880;28;19928;-62
2023/04/11 03:55:12;;;;;;;;;;;12.30;99.90;;;;;;5068600;28;19931;-62
2023/04/11 03:57:45;;;;;;;;;;;12.20;99.90;;;;;;5071281;28;19974;-62
2023/04/11 04:00:17;;;;;;;;;;;12.10;99.90;;;;;;5053350;28;20402;-62
2023/04/11 04:03:00;;;;;;;;;;;12.00;99.90;;;;;;5067111;28;20396;-62
2023/04/11 04:05:27;;;;;;;;;;;11.90;99.90;;;;;;5070552;28;19921;-62
2023/04/11 04:07:59;;;;;;;;;;;11.80;99.90;;;;;;5066280;28;19921;-62
2023/04/11 04:10:38;;;;;;;;;;;11.90;99.90;;;;;;5069964;28;20324;-62
2023/04/11 04:13:10;;;;;;;;;;;11.80;99.90;;;;;;5053455;28;20050;-62
2023/04/11 04:15:51;;;;;;;;;;;12.00;99.90;;;;;;5066603;28;19924;-62
2023/04/11 04:18:25;;;;;;;;;;;12.10;99.90;;;;;;5053552;28;19926;-62
2023/04/11 04:20:59;;;;;;;;;;;12.10;99.90;;;;;;5049357;28;19928;-62
2023/04/11 04:23:31;;;;;;;;;;;12.10;99.90;;;;;;5050856;28;20011;-62
2023/04/11 04:26:23;;;;;;;;;;;12.10;99.90;;;;;;5071540;28;19928;-62
2023/04/11 04:29:08;;;;;;;;;;;12.00;99.90;;;;;;5065858;28;20373;-62
2023/04/11 04:31:51;;;;;;;;;;;12.00;99.90;;;;;;5051762;28;20289;-62
2023/04/11 04:34:53;;;;;;;;;;;12.10;99.90;;;;;;5069619;28;20384;-62
2023/04/11 04:37:38;;;;;;;;;;;12.00;99.90;;;;;;5051090;28;19924;-62
2023/04/11 04:40:40;;;;;;;;;;;12.00;99.90;;;;;;5057725;28;19924;-62
2023/04/11 04:43:17;;;;;;;;;;;11.90;99.90;;;;;;5051534;28;19920;-62
2023/04/11 04:46:30;;;;;;;;;;;11.70;99.90;;;;;;5046429;28;19963;-62
2023/04/11 04:49:04;;;;;;;;;;;11.60;99.90;;;;;;5052549;28;19982;-62
2023/04/11 04:51:36;;;;;;;;;;;11.40;99.90;;;;;;5068920;28;19924;-62
2023/04/11 04:54:03;;;;;;;;;;;11.40;99.90;;;;;;5068771;28;19940;-62
2023/04/11 04:56:30;;;;;;;;;;;11.30;99.90;;;;;;5068173;28;20347;-62
2023/04/11 04:58:57;;;;;;;;;;;11.30;99.90;;;;;;5052633;28;19966;-62
2023/04/11 05:01:31;;;;;;;;;;;11.20;99.90;;;;;;5067519;28;19920;-62
2023/04/11 05:04:04;;;;;;;;;;;11.10;99.90;;;;;;5070007;28;20409;-62
2023/04/11 05:06:57;;;;;;;;;;;11.00;99.90;;;;;;5068636;28;19920;-62
2023/04/11 05:09:30;;;;;;;;;;;10.90;99.90;;;;;;5052121;28;19931;-62
2023/04/11 05:12:08;;;;;;;;;;;10.80;99.90;;;;;;5053660;28;19920;-62
2023/04/11 05:14:41;;;;;;;;;;;10.70;99.90;;;;;;5069622;28;20365;-62
2023/04/11 05:17:12;;;;;;;;;;;10.70;99.90;;;;;;5047145;28;19927;-62
2023/04/11 05:19:44;;;;;;;;;;;10.60;99.90;;;;;;5061745;28;20382;-62
2023/04/11 05:22:17;;;;;;;;;;;10.60;99.90;;;;;;5052817;28;19970;-62
2023/04/11 05:24:53;;;;;;;;;;;10.50;99.90;;;;;;5034705;28;19967;-63
2023/04/11 05:27:19;;;;;;;;;;;10.40;99.90;;;;;;5062868;28;19924;-63
2023/04/11 05:29:53;;;;;;;;;;;10.30;99.90;;;;;;5051082;28;19944;-63
2023/04/11 05:32:25;;;;;;;;;;;10.20;99.90;;;;;;5065386;28;19927;-62
2023/04/11 05:34:57;;;;;;;;;;;10.20;99.90;;;;;;5062701;28;19924;-62
2023/04/11 05:37:37;;;;;;;;;;;10.20;99.90;;;;;;5067315;28;19921;-62
2023/04/11 05:40:11;;;;;;;;;;;10.00;99.90;;;;;;5052234;28;20576;-63
2023/04/11 05:42:42;;;;;;;;;;;9.90;99.90;;;;;;5070528;28;19920;-63
2023/04/11 05:45:09;;;;;;;;;;;9.80;99.90;;;;;;5069179;28;20376;-63
2023/04/11 05:47:41;;;;;;;;;;;9.60;99.90;;;;;;5050020;28;20281;-63
2023/04/11 05:50:14;;;;;;;;;;;9.50;99.90;;;;;;5054491;28;20006;-63
2023/04/11 05:52:46;;;;;;;;;;;9.50;99.90;;;;;;5055217;28;19928;-63
2023/04/11 05:55:18;;;;;;;;;;;9.50;99.90;;;;;;5056346;28;19921;-63
2023/04/11 05:57:49;;;;;;;;;;;9.50;99.90;;;;;;5071156;28;19927;-60
2023/04/11 06:00:23;;;;;;;;;;;9.50;99.90;;;;;;5074185;28;19925;-62
2023/04/11 06:02:49;;;;;;;;;;;9.50;99.90;;;;;;5055914;28;19921;-63
2023/04/11 06:05:21;;;;;;;;;;;9.50;99.90;;;;;;5073954;28;19924;-63
2023/04/11 06:07:55;;;;;;;;;;;9.50;99.90;;;;;;5073809;28;19924;-63
2023/04/11 06:10:28;;;;;;;;;;;9.60;99.90;;;;;;5073980;28;19924;-63
2023/04/11 06:13:00;;;;;;;;;;;9.70;99.90;;;;;;5072266;28;19928;-63
2023/04/11 06:15:32;;;;;;;;;;;9.60;99.90;;;;;;5074019;28;19924;-63
2023/04/11 06:18:03;;;;;;;;;;;9.70;99.90;;;;;;5063112;28;19920;-63
2023/04/11 06:20:35;;;;;;;;;;;9.70;99.90;;;;;;5073601;28;20346;-63
2023/04/11 06:23:02;;;;;;;;;;;9.70;99.90;;;;;;5071357;28;20388;-62
2023/04/11 06:25:33;;;;;;;;;;;9.70;99.90;;;;;;5073847;28;20328;-62
2023/04/11 06:28:05;;;;;;;;;;;9.70;99.90;;;;;;5041588;28;19925;-63
2023/04/11 06:30:37;;;;;;;;;;;9.70;99.90;;;;;;5073262;28;20400;-63
2023/04/11 06:33:08;;;;;;;;;;;9.80;99.90;;;;;;5057299;28;19920;-62
2023/04/11 06:35:40;;;;;;;;;;;9.70;99.90;;;;;;5071140;28;19924;-62
2023/04/11 06:38:12;;;;;;;;;;;9.50;99.90;;;;;;5054372;28;19920;-62
2023/04/11 06:40:44;;;;;;;;;;;9.30;99.90;;;;;;5055413;28;19970;-62
2023/04/11 06:43:15;;;;;;;;;;;9.30;99.90;;;;;;5068578;28;19920;-62
2023/04/11 06:45:48;;;;;;;;;;;9.20;99.90;;;;;;5069773;28;19931;-62
2023/04/11 06:48:20;;;;;;;;;;;9.10;99.90;;;;;;5052572;28;19924;-61
2023/04/11 06:50:52;;;;;;;;;;;9.10;99.90;;;;;;5064386;28;19924;-62
2023/04/11 06:53:24;;;;;;;;;;;9.00;99.90;;;;;;5071755;28;19931;-62
2023/04/11 06:55:56;;;;;;;;;;;9.00;99.90;;;;;;5071843;28;19924;-62
2023/04/11 06:58:28;;;;;;;;;;;9.00;99.90;;;;;;5071153;28;19995;-62
2023/04/11 07:01:00;;;;;;;;;;;9.00;99.90;;;;;;5053185;28;19927;-62
2023/04/11 07:03:32;;;;;;;;;;;8.90;99.90;;;;;;5072754;28;19920;-62
2023/04/11 07:05:58;;;;;;;;;;;8.80;99.90;;;;;;5055049;28;19920;-62
2023/04/11 07:08:30;;;;;;;;;;;8.80;99.90;;;;;;5069336;28;19982;-62
2023/04/11 07:11:02;;;;;;;;;;;8.70;99.90;;;;;;5072804;28;20348;-62
2023/04/11 07:13:33;;;;;;;;;;;8.60;99.90;;;;;;5072722;28;20389;-62
2023/04/11 07:16:05;;;;;;;;;;;8.60;99.90;;;;;;5072051;28;20297;-62
2023/04/11 07:18:37;;;;;;;;;;;8.60;99.90;;;;;;5072217;28;19978;-62
2023/04/11 07:21:12;;;;;;;;;;;8.60;99.90;;;;;;5072607;28;19920;-62
2023/04/11 07:23:44;;;;;;;;;;;8.60;99.90;;;;;;5070872;28;20297;-62
2023/04/11 07:26:16;;;;;;;;;;;8.50;99.90;;;;;;5068673;28;19947;-62
2023/04/11 07:28:48;;;;;;;;;;;8.60;99.90;;;;;;5063448;28;19966;-62
2023/04/11 07:31:21;;;;;;;;;;;8.60;99.90;;;;;;5066644;28;20016;-62
2023/04/11 07:33:53;;;;;;;;;;;8.50;99.90;;;;;;5067836;28;19967;-62
2023/04/11 07:36:25;;;;;;;;;;;8.40;99.90;;;;;;5068120;28;20306;-62
2023/04/11 07:38:58;;;;;;;;;;;8.50;99.90;;;;;;5072065;28;19928;-62
2023/04/11 07:41:30;;;;;;;;;;;8.50;99.90;;;;;;5072206;28;19924;-62
2023/04/11 07:43:57;;;;;;;;;;;8.50;99.90;;;;;;5071930;28;20454;-62
2023/04/11 07:46:28;;;;;;;;;;;8.50;99.90;;;;;;5070464;28;19993;-62
2023/04/11 07:49:00;;;;;;;;;;;8.50;99.90;;;;;;5063736;28;20023;-62
2023/04/11 07:51:32;;;;;;;;;;;8.50;99.90;;;;;;5072012;28;20324;-62
2023/04/11 07:54:04;;;;;;;;;;;8.50;99.90;;;;;;5070337;28;19927;-62
2023/04/11 07:56:35;;;;;;;;;;;8.50;99.90;;;;;;5071875;28;19973;-62
2023/04/11 07:59:07;;;;;;;;;;;8.50;99.90;;;;;;5069438;28;19920;-62
2023/04/11 08:01:39;;;;;;;;;;;8.50;99.90;;;;;;5068880;28;19928;-62
2023/04/11 08:04:11;;;;;;;;;;;8.50;99.90;;;;;;5064217;28;19992;-62
2023/04/11 08:06:43;;;;;;;;;;;8.50;99.90;;;;;;5068459;28;19927;-62
2023/04/11 08:09:14;;;;;;;;;;;8.40;99.90;;;;;;5070149;28;20347;-62
2023/04/11 08:11:46;;;;;;;;;;;8.50;99.90;;;;;;5056309;28;19924;-61
2023/04/11 08:14:13;;;;;;;;;;;8.40;99.90;;;;;;5070465;28;19924;-62
2023/04/11 08:16:45;;;;;;;;;;;8.40;99.90;;;;;;5070676;28;19942;-62
2023/04/11 08:19:17;;;;;;;;;;;8.40;99.90;;;;;;5058283;28;19924;-62
2023/04/11 08:21:49;;;;;;;;;;;8.40;99.90;;;;;;5071373;28;20389;-62
2023/04/11 08:24:20;;;;;;;;;;;8.40;99.90;;;;;;5070999;28;19993;-62
2023/04/11 08:26:52;;;;;;;;;;;8.50;99.90;;;;;;5070032;28;20455;-62
2023/04/11 08:29:24;;;;;;;;;;;8.60;99.90;;;;;;5050897;28;19920;-62
2023/04/11 08:31:56;;;;;;;;;;;8.60;99.90;;;;;;5067483;28;19920;-62
2023/04/11 08:34:30;;;;;;;;;;;8.70;99.90;;;;;;5050674;28;19986;-62
2023/04/11 08:37:03;;;;;;;;;;;8.80;99.90;;;;;;5054404;28;19931;-62
2023/04/11 08:39:35;;;;;;;;;;;8.80;99.90;;;;;;5051228;28;19921;-62
2023/04/11 08:42:19;;;;;;;;;;;8.90;99.90;;;;;;5061110;28;19972;-62
2023/04/11 08:44:52;;;;;;;;;;;9.00;99.90;;;;;;5055619;28;19936;-62
2023/04/11 08:47:24;;;;;;;;;;;9.10;99.90;;;;;;5070849;28;20003;-66
2023/04/11 08:49:56;;;;;;;;;;;9.20;99.90;;;;;;5069276;28;19920;-65
2023/04/11 08:52:29;;;;;;;;;;;9.20;99.90;;;;;;5070845;28;20451;-63
2023/04/11 08:55:00;;;;;;;;;;;9.20;99.90;;;;;;5066072;28;20005;-62
2023/04/11 08:57:30;;;;;;;;;;;9.20;99.90;;;;;;5072570;28;19974;-62
2023/04/11 09:00:09;;;;;;;;;;;9.20;99.90;;;;;;5068923;28;20325;-62
2023/04/11 09:02:56;;;;;;;;;;;9.20;99.90;;;;;;5068622;28;20397;-62
2023/04/11 09:05:31;;;;;;;;;;;9.10;99.90;;;;;;5051564;28;19928;-62
2023/04/11 09:08:03;;;;;;;;;;;9.20;99.90;;;;;;5063133;28;19951;-62
2023/04/11 09:10:35;;;;;;;;;;;9.20;99.90;;;;;;5069650;28;19974;-62
2023/04/11 09:13:23;;;;;;;;;;;9.00;99.90;;;;;;5070708;28;19925;-62
2023/04/11 09:16:04;;;;;;;;;;;8.90;99.90;;;;;;5063855;28;20652;-62
2023/04/11 09:18:37;;;;;;;;;;;8.90;99.90;;;;;;5070387;28;19928;-62
2023/04/11 09:21:08;;;;;;;;;;;8.90;99.90;;;;;;5067347;28;20400;-62
2023/04/11 09:23:40;;;;;;;;;;;8.90;99.90;;;;;;5064613;28;19924;-62
2023/04/11 09:26:23;;;;;;;;;;;8.90;99.90;;;;;;5069425;28;20018;-62
2023/04/11 09:28:52;;;;;;;;;;;9.00;99.90;;;;;;5064331;28;19920;-62
2023/04/11 09:31:43;;;;;;;;;;;9.10;99.90;;;;;;5053312;28;19927;-62
2023/04/11 09:34:11;;;;;;;;;;;9.00;99.90;;;;;;5065498;28;19920;-62
2023/04/11 09:36:52;;;;;;;;;;;9.10;99.90;;;;;;5067290;28;19931;-62
2023/04/11 09:39:19;;;;;;;;;;;9.20;99.90;;;;;;5052703;28;19941;-63
2023/04/11 09:41:51;;;;;;;;;;;9.20;99.90;;;;;;5065922;28;20023;-63
2023/04/11 09:44:37;;;;;;;;;;;9.10;99.90;;;;;;5048634;28;19925;-63
2023/04/11 09:47:09;;;;;;;;;;;9.20;99.90;;;;;;5068475;28;20395;-62
2023/04/11 09:49:37;;;;;;;;;;;9.20;99.90;;;;;;5043039;28;19930;-62
2023/04/11 09:52:09;;;;;;;;;;;9.20;99.90;;;;;;5061569;28;19920;-63
2023/04/11 09:54:41;;;;;;;;;;;9.30;99.90;;;;;;5073284;28;19928;-63
2023/04/11 09:57:14;;;;;;;;;;;9.30;99.90;;;;;;5065864;28;20430;-62
2023/04/11 09:59:47;;;;;;;;;;;9.40;99.90;;;;;;5053630;28;19931;-62
2023/04/11 10:02:19;;;;;;;;;;;9.40;99.90;;;;;;5071004;28;19928;-63
2023/04/11 10:04:53;;;;;;;;;;;9.50;99.90;;;;;;5070914;28;19920;-63
2023/04/11 10:07:28;;;;;;;;;;;9.60;99.90;;;;;;5067812;28;20411;-63
2023/04/11 10:10:00;;;;;;;;;;;9.60;99.90;;;;;;5061803;28;20637;-63
2023/04/11 10:12:30;;;;;;;;;;;9.60;99.90;;;;;;5068722;28;19920;-63
2023/04/11 10:15:07;;;;;;;;;;;9.60;99.90;;;;;;5063222;28;19979;-63
2023/04/11 10:17:39;;;;;;;;;;;9.60;99.90;;;;;;5072533;28;19920;-63
2023/04/11 10:20:26;;;;;;;;;;;9.60;99.90;;;;;;5070728;28;19920;-63
2023/04/11 10:22:58;;;;;;;;;;;9.50;99.90;;;;;;5070179;28;19920;-63
2023/04/11 10:25:25;;;;;;;;;;;9.50;99.90;;;;;;5071560;28;19920;-63
2023/04/11 10:28:02;;;;;;;;;;;9.40;99.90;;;;;;5060223;28;19921;-62
2023/04/11 10:30:40;;;;;;;;;;;9.30;99.90;;;;;;5056324;28;20003;-63
2023/04/11 10:33:14;;;;;;;;;;;9.40;99.90;;;;;;5070377;28;20467;-63
2023/04/11 10:36:01;;;;;;;;;;;9.50;99.90;;;;;;5067217;28;19920;-63
2023/04/11 10:38:40;;;;;;;;;;;9.50;99.90;;;;;;5051136;28;19921;-63
2023/04/11 10:41:32;;;;;;;;;;;9.50;99.90;;;;;;5067322;28;19928;-63
2023/04/11 10:44:19;;;;;;;;;;;9.50;99.90;;;;;;5054515;28;21241;-63
2023/04/11 10:46:50;;;;;;;;;;;9.60;99.90;;;;;;5049297;28;19931;-62
2023/04/11 10:49:33;;;;;;;;;;;9.70;99.90;;;;;;5066050;28;19924;-63
2023/04/11 10:52:17;;;;;;;;;;;9.80;99.90;;;;;;5030690;28;19929;-63
2023/04/11 10:54:50;;;;;;;;;;;9.80;99.90;;;;;;5046181;28;19925;-63
2023/04/11 10:57:21;;;;;;;;;;;9.90;99.90;;;;;;5069801;28;19931;-63
2023/04/11 10:59:56;;;;;;;;;;;9.90;99.90;;;;;;5072589;28;20023;-63
2023/04/11 11:02:35;;;;;;;;;;;10.10;99.90;;;;;;5065355;28;19936;-63
2023/04/11 11:05:13;;;;;;;;;;;10.10;99.90;;;;;;5049510;28;20415;-63
2023/04/11 11:07:46;;;;;;;;;;;10.10;99.90;;;;;;5048765;28;19920;-62
2023/04/11 11:10:35;;;;;;;;;;;10.10;99.90;;;;;;5066283;28;19920;-63
2023/04/11 11:13:07;;;;;;;;;;;10.10;99.90;;;;;;5071256;28;19977;-62
2023/04/11 11:15:45;;;;;;;;;;;10.10;99.90;;;;;;5064284;28;19970;-62
2023/04/11 11:18:17;;;;;;;;;;;10.30;99.90;;;;;;5066204;28;19921;-63
2023/04/11 11:20:53;;;;;;;;;;;10.40;99.90;;;;;;5067312;28;19924;-63
2023/04/11 11:23:26;;;;;;;;;;;10.50;99.90;;;;;;5052762;28;20385;-63
2023/04/11 11:25:59;;;;;;;;;;;10.40;99.90;;;;;;5066553;28;19920;-63
2023/04/11 11:28:31;;;;;;;;;;;10.30;99.90;;;;;;5053542;28;19920;-62
2023/04/11 11:31:03;;;;;;;;;;;10.30;99.90;;;;;;5066530;28;20468;-62
2023/04/11 11:33:29;;;;;;;;;;;10.40;99.90;;;;;;5069675;28;20010;-62
2023/04/11 11:36:03;;;;;;;;;;;10.40;99.90;;;;;;5067790;28;20277;-62
2023/04/11 11:38:35;;;;;;;;;;;10.40;99.90;;;;;;5055485;28;19920;-63
2023/04/11 11:41:07;;;;;;;;;;;10.40;99.90;;;;;;5071008;28;20406;-62
2023/04/11 11:43:38;;;;;;;;;;;10.40;99.90;;;;;;5068398;28;19920;-62
2023/04/11 11:46:07;;;;;;;;;;;10.50;99.90;;;;;;5070859;28;19935;-63
2023/04/11 11:48:40;;;;;;;;;;;10.50;99.90;;;;;;5053192;28;19924;-63
2023/04/11 11:51:13;;;;;;;;;;;10.60;99.90;;;;;;5070822;28;19990;-62
2023/04/11 11:54:00;;;;;;;;;;;10.80;99.90;;;;;;5051116;28;19924;-63
2023/04/11 11:56:31;;;;;;;;;;;10.80;99.90;;;;;;5054704;28;19924;-63
2023/04/11 11:59:06;;;;;;;;;;;10.80;99.90;;;;;;5068136;28;19931;-62
2023/04/11 12:01:40;;;;;;;;;;;10.60;99.90;;;;;;5063140;28;19936;-63
2023/04/11 12:04:12;;;;;;;;;;;10.60;99.90;;;;;;5068327;28;19920;-63
2023/04/11 12:06:39;;;;;;;;;;;10.60;99.90;;;;;;5052572;28;20442;-62
2023/04/11 12:09:11;;;;;;;;;;;10.60;99.90;;;;;;5052957;28;19931;-63
2023/04/11 12:11:44;;;;;;;;;;;10.70;99.90;;;;;;5068388;28;20416;-63
2023/04/11 12:14:22;;;;;;;;;;;10.80;99.90;;;;;;5052285;28;19974;-62
2023/04/11 12:16:54;;;;;;;;;;;10.90;99.90;;;;;;5070887;28;20324;-63
2023/04/11 12:19:26;;;;;;;;;;;10.90;99.90;;;;;;5071171;28;20356;-62
2023/04/11 12:21:57;;;;;;;;;;;10.90;99.90;;;;;;5065427;28;19928;-62
2023/04/11 12:24:29;;;;;;;;;;;11.00;99.90;;;;;;5063849;28;19921;-62
2023/04/11 12:27:03;;;;;;;;;;;11.10;99.90;;;;;;5044057;28;20324;-62
2023/04/11 12:29:35;;;;;;;;;;;11.20;99.90;;;;;;5069848;28;19920;-62
2023/04/11 12:32:07;;;;;;;;;;;11.30;99.90;;;;;;5051909;28;19920;-62
2023/04/11 12:34:40;;;;;;;;;;;11.30;99.90;;;;;;5068406;28;19920;-63
2023/04/11 12:37:12;;;;;;;;;;;11.50;99.90;;;;;;5068491;28;20408;-62
2023/04/11 12:39:44;;;;;;;;;;;11.70;99.90;;;;;;5066802;28;19924;-63
2023/04/11 12:42:16;;;;;;;;;;;11.80;99.90;;;;;;5051679;28;19924;-63
2023/04/11 12:44:43;;;;;;;;;;;11.80;99.90;;;;;;5065608;28;19924;-62
2023/04/11 12:47:15;;;;;;;;;;;11.70;99.90;;;;;;5069482;28;19928;-62
2023/04/11 12:49:42;;;;;;;;;;;11.70;99.90;;;;;;5050863;28;19982;-63
2023/04/11 12:52:13;;;;;;;;;;;11.60;99.90;;;;;;5048771;28;20448;-62
2023/04/11 12:54:40;;;;;;;;;;;11.70;99.90;;;;;;5068895;28;19920;-64
2023/04/11 12:57:12;;;;;;;;;;;11.80;99.90;;;;;;5061423;28;19924;-63
2023/04/11 12:59:39;;;;;;;;;;;11.80;99.90;;;;;;5072336;28;20388;-62
2023/04/11 13:02:11;;;;;;;;;;;11.80;99.90;;;;;;5073335;28;19920;-63
2023/04/11 13:04:43;;;;;;;;;;;11.80;99.90;;;;;;5057382;28;19921;-62
2023/04/11 13:07:15;;;;;;;;;;;11.80;99.90;;;;;;5072313;28;19931;-63
2023/04/11 13:09:42;;;;;;;;;;;11.90;99.90;;;;;;5056592;28;19936;-63
2023/04/11 13:12:14;;;;;;;;;;;11.90;99.90;;;;;;5060875;28;19920;-63
2023/04/11 13:14:46;;;;;;;;;;;11.90;99.90;;;;;;5054748;28;19978;-63
2023/04/11 13:17:18;;;;;;;;;;;11.90;99.90;;;;;;5070453;28;19944;-63
2023/04/11 13:19:49;;;;;;;;;;;11.90;99.90;;;;;;5076813;28;19970;-63
2023/04/11 13:22:21;;;;;;;;;;;11.80;99.90;;;;;;5074781;28;19928;-63
2023/04/11 13:24:53;;;;;;;;;;;11.80;99.90;;;;;;5074442;28;19985;-64
2023/04/11 13:27:25;;;;;;;;;;;11.90;99.90;;;;;;5071760;28;19986;-63
2023/04/11 13:29:51;;;;;;;;;;;12.00;99.90;;;;;;5073268;28;19928;-62
2023/04/11 13:32:23;;;;;;;;;;;12.00;99.90;;;;;;5058948;28;19921;-62
2023/04/11 13:34:54;;;;;;;;;;;12.00;99.90;;;;;;5073398;28;19920;-62
2023/04/11 13:37:27;;;;;;;;;;;11.90;99.90;;;;;;5057621;28;19921;-63
2023/04/11 13:39:58;;;;;;;;;;;11.90;99.90;;;;;;5073400;28;19924;-63
2023/04/11 13:42:25;;;;;;;;;;;11.80;99.90;;;;;;5070051;28;19921;-62
2023/04/11 13:44:57;;;;;;;;;;;11.80;99.90;;;;;;5076362;28;19925;-63
2023/04/11 13:47:28;;;;;;;;;;;11.80;99.90;;;;;;5058632;28;19966;-62
2023/04/11 13:50:00;;;;;;;;;;;11.80;99.90;;;;;;5076521;28;19924;-62
2023/04/11 13:52:31;;;;;;;;;;;11.90;99.90;;;;;;5059033;28;19920;-62
2023/04/11 13:55:03;;;;;;;;;;;11.90;99.90;;;;;;5076915;28;19974;-62
2023/04/11 13:57:35;;;;;;;;;;;12.00;99.90;;;;;;5058360;28;20412;-63
2023/04/11 14:00:13;;;;;;;;;;;12.00;99.90;;;;;;5075968;28;20385;-63
2023/04/11 14:02:45;;;;;;;;;;;12.00;99.90;;;;;;5073397;28;19946;-62
2023/04/11 14:05:16;;;;;;;;;;;11.90;99.90;;;;;;5077148;28;19920;-62
2023/04/11 14:07:48;;;;;;;;;;;11.90;99.90;;;;;;5059336;28;19920;-62
2023/04/11 14:10:20;;;;;;;;;;;11.90;99.90;;;;;;5074658;28;19978;-62
2023/04/11 14:12:51;;;;;;;;;;;12.10;99.90;;;;;;5068824;28;20480;-62
2023/04/11 14:15:23;;;;;;;;;;;12.30;99.90;;;;;;5073846;28;19974;-62
2023/04/11 14:17:50;;;;;;;;;;;12.50;99.60;;;;;;5073240;28;19924;-62
2023/04/11 14:20:22;;;;;;;;;;;12.70;98.00;;;;;;5055042;28;20439;-62
2023/04/11 14:22:49;;;;;;;;;;;13.00;98.70;;;;;;5073598;28;19927;-63
2023/04/11 14:25:21;;;;;;;;;;;13.20;97.00;;;;;;5073673;28;19974;-62
2023/04/11 14:27:48;;;;;;;;;;;13.10;96.00;;;;;;5073320;28;19920;-63
2023/04/11 14:30:20;;;;;;;;;;;13.10;96.10;;;;;;5067302;28;20396;-62
2023/04/11 14:32:52;;;;;;;;;;;12.60;95.10;;;;;;5052810;28;19927;-62
2023/04/11 14:35:23;;;;;;;;;;;12.40;95.50;;;;;;5066670;28;19932;-62
2023/04/11 14:37:55;;;;;;;;;;;12.70;95.50;;;;;;5062531;28;19928;-62
2023/04/11 14:40:22;;;;;;;;;;;12.70;94.50;;;;;;5071170;28;19927;-63
2023/04/11 14:42:57;;;;;;;;;;;12.70;93.80;;;;;;5065629;28;19973;-62
2023/04/11 14:45:29;;;;;;;;;;;12.90;92.90;;;;;;5066196;28;20312;-63
2023/04/11 14:48:01;;;;;;;;;;;13.00;93.80;;;;;;5070444;28;20018;-62
2023/04/11 14:50:33;;;;;;;;;;;13.20;94.50;;;;;;5055676;28;19920;-63
2023/04/11 14:53:05;;;;;;;;;;;13.40;94.20;;;;;;5055732;28;19921;-62
2023/04/11 14:55:38;;;;;;;;;;;13.50;94.40;;;;;;5067762;28;20281;-63